sensor_id;sensor_type;location;lat;lon;timestamp;P1;durP1;ratioP1;P2;durP2;ratioP2
34982;SDS011;21187;50.976;13.720;2022-09-27T00:03:18;1.70;;;0.65;;
34982;SDS011;21187;50.976;13.720;2022-09-27T00:08:20;0.88;;;0.65;;
34982;SDS011;21187;50.976;13.720;2022-09-27T00:13:22;3.65;;;0.73;;
34982;SDS011;21187;50.976;13.720;2022-09-27T00:18:24;1.63;;;0.90;;
34982;SDS011;21187;50.976;13.720;2022-09-27T00:23:26;1.42;;;0.75;;
34982;SDS011;21187;50.976;13.720;2022-09-27T00:28:28;2.85;;;0.90;;
34982;SDS011;21187;50.976;13.720;2022-09-27T00:33:31;1.35;;;0.93;;
34982;SDS011;21187;50.976;13.720;2022-09-27T00:38:33;2.20;;;0.80;;
34982;SDS011;21187;50.976;13.720;2022-09-27T00:43:46;3.70;;;1.30;;
34982;SDS011;21187;50.976;13.720;2022-09-27T00:54:16;1.75;;;1.00;;
34982;SDS011;21187;50.976;13.720;2022-09-27T00:59:19;4.53;;;1.17;;
34982;SDS011;21187;50.976;13.720;2022-09-27T01:04:43;4.50;;;1.13;;
34982;SDS011;21187;50.976;13.720;2022-09-27T01:09:46;2.08;;;1.05;;
34982;SDS011;21187;50.976;13.720;2022-09-27T01:20:06;1.95;;;0.70;;
34982;SDS011;21187;50.976;13.720;2022-09-27T01:41:07;3.70;;;1.00;;
34982;SDS011;21187;50.976;13.720;2022-09-27T01:46:54;2.38;;;0.75;;
34982;SDS011;21187;50.976;13.720;2022-09-27T01:52:15;1.33;;;1.02;;
34982;SDS011;21187;50.976;13.720;2022-09-27T01:57:23;3.70;;;1.00;;
34982;SDS011;21187;50.976;13.720;2022-09-27T02:02:29;3.85;;;1.00;;
34982;SDS011;21187;50.976;13.720;2022-09-27T02:08:07;2.55;;;1.30;;
34982;SDS011;21187;50.976;13.720;2022-09-27T02:13:20;4.50;;;1.38;;
34982;SDS011;21187;50.976;13.720;2022-09-27T02:18:35;2.47;;;1.40;;
34982;SDS011;21187;50.976;13.720;2022-09-27T02:23:52;3.78;;;1.35;;
34982;SDS011;21187;50.976;13.720;2022-09-27T02:28:59;7.93;;;2.75;;
34982;SDS011;21187;50.976;13.720;2022-09-27T02:34:21;5.60;;;1.95;;
34982;SDS011;21187;50.976;13.720;2022-09-27T02:39:27;3.28;;;1.70;;
34982;SDS011;21187;50.976;13.720;2022-09-27T02:44:36;3.53;;;2.20;;
34982;SDS011;21187;50.976;13.720;2022-09-27T02:55:33;5.78;;;2.55;;
34982;SDS011;21187;50.976;13.720;2022-09-27T03:06:47;6.30;;;4.15;;
34982;SDS011;21187;50.976;13.720;2022-09-27T03:11:50;6.65;;;4.70;;
34982;SDS011;21187;50.976;13.720;2022-09-27T03:16:53;6.80;;;4.30;;
34982;SDS011;21187;50.976;13.720;2022-09-27T03:22:15;7.97;;;5.18;;
34982;SDS011;21187;50.976;13.720;2022-09-27T03:27:18;6.15;;;4.22;;
34982;SDS011;21187;50.976;13.720;2022-09-27T03:32:19;7.63;;;4.90;;
34982;SDS011;21187;50.976;13.720;2022-09-27T03:37:40;6.63;;;4.78;;
34982;SDS011;21187;50.976;13.720;2022-09-27T03:42:42;9.18;;;5.50;;
34982;SDS011;21187;50.976;13.720;2022-09-27T03:47:50;10.18;;;4.97;;
34982;SDS011;21187;50.976;13.720;2022-09-27T03:52:52;10.18;;;4.82;;
34982;SDS011;21187;50.976;13.720;2022-09-27T03:57:56;14.95;;;5.65;;
34982;SDS011;21187;50.976;13.720;2022-09-27T04:02:58;9.13;;;5.38;;
34982;SDS011;21187;50.976;13.720;2022-09-27T04:08:00;9.38;;;5.57;;
34982;SDS011;21187;50.976;13.720;2022-09-27T04:13:05;9.50;;;5.28;;
34982;SDS011;21187;50.976;13.720;2022-09-27T04:18:14;7.95;;;5.57;;
34982;SDS011;21187;50.976;13.720;2022-09-27T04:23:34;8.70;;;5.45;;
34982;SDS011;21187;50.976;13.720;2022-09-27T04:28:37;7.13;;;5.38;;
34982;SDS011;21187;50.976;13.720;2022-09-27T04:33:40;10.60;;;6.22;;
34982;SDS011;21187;50.976;13.720;2022-09-27T04:38:56;8.98;;;6.38;;
34982;SDS011;21187;50.976;13.720;2022-09-27T04:44:00;9.65;;;6.10;;
34982;SDS011;21187;50.976;13.720;2022-09-27T04:49:02;9.38;;;6.40;;
34982;SDS011;21187;50.976;13.720;2022-09-27T04:54:07;7.65;;;5.63;;
34982;SDS011;21187;50.976;13.720;2022-09-27T04:59:18;8.65;;;5.68;;
34982;SDS011;21187;50.976;13.720;2022-09-27T05:04:20;10.55;;;6.72;;
34982;SDS011;21187;50.976;13.720;2022-09-27T05:09:24;8.77;;;5.45;;
34982;SDS011;21187;50.976;13.720;2022-09-27T05:14:29;7.93;;;5.70;;
34982;SDS011;21187;50.976;13.720;2022-09-27T05:19:55;8.75;;;5.25;;
34982;SDS011;21187;50.976;13.720;2022-09-27T05:25:10;6.85;;;4.90;;
34982;SDS011;21187;50.976;13.720;2022-09-27T05:30:13;8.07;;;5.22;;
34982;SDS011;21187;50.976;13.720;2022-09-27T05:35:21;8.77;;;5.15;;
34982;SDS011;21187;50.976;13.720;2022-09-27T05:40:23;7.47;;;4.70;;
34982;SDS011;21187;50.976;13.720;2022-09-27T05:45:44;9.68;;;4.38;;
34982;SDS011;21187;50.976;13.720;2022-09-27T05:50:48;5.78;;;4.35;;
34982;SDS011;21187;50.976;13.720;2022-09-27T05:55:50;6.43;;;4.05;;
34982;SDS011;21187;50.976;13.720;2022-09-27T06:00:58;5.45;;;3.78;;
34982;SDS011;21187;50.976;13.720;2022-09-27T06:06:29;5.13;;;3.50;;
34982;SDS011;21187;50.976;13.720;2022-09-27T06:11:31;6.15;;;4.22;;
34982;SDS011;21187;50.976;13.720;2022-09-27T06:16:33;5.65;;;4.15;;
34982;SDS011;21187;50.976;13.720;2022-09-27T06:21:35;7.57;;;4.95;;
34982;SDS011;21187;50.976;13.720;2022-09-27T06:26:38;9.45;;;4.30;;
34982;SDS011;21187;50.976;13.720;2022-09-27T06:32:02;6.00;;;4.68;;
34982;SDS011;21187;50.976;13.720;2022-09-27T06:37:24;6.93;;;4.10;;
34982;SDS011;21187;50.976;13.720;2022-09-27T06:42:27;8.20;;;4.80;;
34982;SDS011;21187;50.976;13.720;2022-09-27T06:47:53;5.75;;;3.53;;
34982;SDS011;21187;50.976;13.720;2022-09-27T06:52:59;6.45;;;3.97;;
34982;SDS011;21187;50.976;13.720;2022-09-27T06:58:01;4.88;;;3.53;;
34982;SDS011;21187;50.976;13.720;2022-09-27T07:04:00;4.85;;;3.42;;
34982;SDS011;21187;50.976;13.720;2022-09-27T07:09:15;4.38;;;3.00;;
34982;SDS011;21187;50.976;13.720;2022-09-27T07:14:18;4.38;;;2.80;;
34982;SDS011;21187;50.976;13.720;2022-09-27T07:19:21;3.45;;;2.67;;
34982;SDS011;21187;50.976;13.720;2022-09-27T07:24:25;2.75;;;1.85;;
34982;SDS011;21187;50.976;13.720;2022-09-27T07:29:27;2.08;;;1.70;;
34982;SDS011;21187;50.976;13.720;2022-09-27T07:34:29;2.60;;;1.70;;
34982;SDS011;21187;50.976;13.720;2022-09-27T07:39:35;2.22;;;1.40;;
34982;SDS011;21187;50.976;13.720;2022-09-27T07:44:37;2.13;;;1.40;;
34982;SDS011;21187;50.976;13.720;2022-09-27T07:49:59;3.10;;;1.17;;
34982;SDS011;21187;50.976;13.720;2022-09-27T07:55:20;1.98;;;1.05;;
34982;SDS011;21187;50.976;13.720;2022-09-27T08:00:29;1.00;;;0.60;;
34982;SDS011;21187;50.976;13.720;2022-09-27T08:05:32;1.58;;;0.73;;
34982;SDS011;21187;50.976;13.720;2022-09-27T08:10:35;0.60;;;0.60;;
34982;SDS011;21187;50.976;13.720;2022-09-27T08:15:37;0.70;;;0.65;;
34982;SDS011;21187;50.976;13.720;2022-09-27T08:20:40;0.68;;;0.50;;
34982;SDS011;21187;50.976;13.720;2022-09-27T08:31:21;0.85;;;0.40;;
34982;SDS011;21187;50.976;13.720;2022-09-27T08:36:28;0.90;;;0.57;;
34982;SDS011;21187;50.976;13.720;2022-09-27T08:52:40;1.00;;;0.43;;
34982;SDS011;21187;50.976;13.720;2022-09-27T08:57:49;1.03;;;0.50;;
34982;SDS011;21187;50.976;13.720;2022-09-27T09:03:00;0.70;;;0.28;;
34982;SDS011;21187;50.976;13.720;2022-09-27T09:08:18;0.50;;;0.20;;
34982;SDS011;21187;50.976;13.720;2022-09-27T09:19:03;1.95;;;0.10;;
34982;SDS011;21187;50.976;13.720;2022-09-27T09:40:47;0.30;;;0.30;;
34982;SDS011;21187;50.976;13.720;2022-09-27T09:51:48;1.02;;;0.25;;
34982;SDS011;21187;50.976;13.720;2022-09-27T09:57:01;0.68;;;0.20;;
34982;SDS011;21187;50.976;13.720;2022-09-27T10:02:17;2.00;;;0.80;;
34982;SDS011;21187;50.976;13.720;2022-09-27T10:07:54;0.50;;;0.40;;
34982;SDS011;21187;50.976;13.720;2022-09-27T10:13:01;0.60;;;0.40;;
34982;SDS011;21187;50.976;13.720;2022-09-27T10:18:11;0.27;;;0.27;;
34982;SDS011;21187;50.976;13.720;2022-09-27T10:23:19;0.30;;;0.30;;
34982;SDS011;21187;50.976;13.720;2022-09-27T10:28:40;0.20;;;0.20;;
34982;SDS011;21187;50.976;13.720;2022-09-27T10:33:59;0.65;;;0.20;;
34982;SDS011;21187;50.976;13.720;2022-09-27T10:39:20;0.82;;;0.20;;
34982;SDS011;21187;50.976;13.720;2022-09-27T10:44:26;0.28;;;0.20;;
34982;SDS011;21187;50.976;13.720;2022-09-27T10:49:50;0.17;;;0.13;;
34982;SDS011;21187;50.976;13.720;2022-09-27T11:00:32;0.20;;;0.10;;
34982;SDS011;21187;50.976;13.720;2022-09-27T11:05:38;1.55;;;0.30;;
34982;SDS011;21187;50.976;13.720;2022-09-27T11:10:40;0.20;;;0.20;;
34982;SDS011;21187;50.976;13.720;2022-09-27T11:26:52;8.05;;;6.57;;
34982;SDS011;21187;50.976;13.720;2022-09-27T11:37:51;1.75;;;0.73;;
34982;SDS011;21187;50.976;13.720;2022-09-27T11:43:15;1.67;;;0.98;;
34982;SDS011;21187;50.976;13.720;2022-09-27T11:48:52;0.43;;;0.43;;
34982;SDS011;21187;50.976;13.720;2022-09-27T11:54:15;0.20;;;0.20;;
34982;SDS011;21187;50.976;13.720;2022-09-27T12:16:11;0.20;;;0.20;;
34982;SDS011;21187;50.976;13.720;2022-09-27T12:21:18;0.40;;;0.38;;
34982;SDS011;21187;50.976;13.720;2022-09-27T12:26:26;0.90;;;0.47;;
34982;SDS011;21187;50.976;13.720;2022-09-27T12:31:33;1.15;;;0.45;;
34982;SDS011;21187;50.976;13.720;2022-09-27T12:36:42;0.60;;;0.35;;
34982;SDS011;21187;50.976;13.720;2022-09-27T12:42:33;1.65;;;0.20;;
34982;SDS011;21187;50.976;13.720;2022-09-27T12:52:36;0.10;;;0.10;;
34982;SDS011;21187;50.976;13.720;2022-09-27T13:14:27;0.30;;;0.10;;
34982;SDS011;21187;50.976;13.720;2022-09-27T13:24:42;1.88;;;0.30;;
34982;SDS011;21187;50.976;13.720;2022-09-27T13:35:25;0.30;;;0.30;;
34982;SDS011;21187;50.976;13.720;2022-09-27T13:40:43;1.88;;;0.28;;
34982;SDS011;21187;50.976;13.720;2022-09-27T13:51:16;0.38;;;0.30;;
34982;SDS011;21187;50.976;13.720;2022-09-27T14:01:52;2.10;;;0.45;;
34982;SDS011;21187;50.976;13.720;2022-09-27T14:07:05;1.30;;;0.30;;
34982;SDS011;21187;50.976;13.720;2022-09-27T14:12:36;1.17;;;0.50;;
34982;SDS011;21187;50.976;13.720;2022-09-27T14:17:45;0.45;;;0.30;;
34982;SDS011;21187;50.976;13.720;2022-09-27T14:22:52;3.25;;;0.40;;
34982;SDS011;21187;50.976;13.720;2022-09-27T14:27:59;1.35;;;0.50;;
34982;SDS011;21187;50.976;13.720;2022-09-27T14:33:24;2.88;;;0.50;;
34982;SDS011;21187;50.976;13.720;2022-09-27T14:38:39;0.40;;;0.40;;
34982;SDS011;21187;50.976;13.720;2022-09-27T14:43:52;1.02;;;0.40;;
34982;SDS011;21187;50.976;13.720;2022-09-27T14:48:54;0.40;;;0.40;;
34982;SDS011;21187;50.976;13.720;2022-09-27T14:53:57;0.63;;;0.40;;
34982;SDS011;21187;50.976;13.720;2022-09-27T14:59:12;0.77;;;0.40;;
34982;SDS011;21187;50.976;13.720;2022-09-27T15:04:18;0.47;;;0.40;;
34982;SDS011;21187;50.976;13.720;2022-09-27T15:09:22;2.50;;;2.30;;
34982;SDS011;21187;50.976;13.720;2022-09-27T15:14:27;1.55;;;0.70;;
34982;SDS011;21187;50.976;13.720;2022-09-27T15:19:33;0.80;;;0.75;;
34982;SDS011;21187;50.976;13.720;2022-09-27T15:24:36;0.50;;;0.50;;
34982;SDS011;21187;50.976;13.720;2022-09-27T15:29:51;0.70;;;0.70;;
34982;SDS011;21187;50.976;13.720;2022-09-27T15:34:56;1.30;;;0.90;;
34982;SDS011;21187;50.976;13.720;2022-09-27T15:50:31;1.95;;;0.90;;
34982;SDS011;21187;50.976;13.720;2022-09-27T15:55:38;2.92;;;1.20;;
34982;SDS011;21187;50.976;13.720;2022-09-27T16:00:53;2.78;;;1.05;;
34982;SDS011;21187;50.976;13.720;2022-09-27T16:05:57;3.33;;;1.60;;
34982;SDS011;21187;50.976;13.720;2022-09-27T16:11:01;4.22;;;1.90;;
34982;SDS011;21187;50.976;13.720;2022-09-27T16:16:07;4.97;;;1.73;;
34982;SDS011;21187;50.976;13.720;2022-09-27T16:21:17;2.00;;;1.13;;
34982;SDS011;21187;50.976;13.720;2022-09-27T16:26:19;2.47;;;1.20;;
34982;SDS011;21187;50.976;13.720;2022-09-27T16:31:21;9.57;;;2.67;;
34982;SDS011;21187;50.976;13.720;2022-09-27T16:36:23;3.90;;;1.95;;
34982;SDS011;21187;50.976;13.720;2022-09-27T16:41:25;5.13;;;2.55;;
34982;SDS011;21187;50.976;13.720;2022-09-27T16:46:27;5.00;;;2.13;;
34982;SDS011;21187;50.976;13.720;2022-09-27T16:51:29;8.80;;;2.70;;
34982;SDS011;21187;50.976;13.720;2022-09-27T16:56:50;2.30;;;0.95;;
34982;SDS011;21187;50.976;13.720;2022-09-27T17:01:55;4.72;;;1.58;;
34982;SDS011;21187;50.976;13.720;2022-09-27T17:06:58;1.65;;;1.20;;
34982;SDS011;21187;50.976;13.720;2022-09-27T17:12:01;2.10;;;1.50;;
34982;SDS011;21187;50.976;13.720;2022-09-27T17:17:03;4.90;;;1.60;;
34982;SDS011;21187;50.976;13.720;2022-09-27T17:22:05;33.38;;;11.90;;
34982;SDS011;21187;50.976;13.720;2022-09-27T17:27:07;63.17;;;16.35;;
34982;SDS011;21187;50.976;13.720;2022-09-27T17:32:10;3.80;;;2.25;;
34982;SDS011;21187;50.976;13.720;2022-09-27T17:37:14;2.90;;;1.55;;
34982;SDS011;21187;50.976;13.720;2022-09-27T17:42:15;2.67;;;1.67;;
34982;SDS011;21187;50.976;13.720;2022-09-27T17:47:19;3.90;;;1.38;;
34982;SDS011;21187;50.976;13.720;2022-09-27T17:52:39;3.15;;;1.55;;
34982;SDS011;21187;50.976;13.720;2022-09-27T17:57:42;2.28;;;1.60;;
34982;SDS011;21187;50.976;13.720;2022-09-27T18:02:43;6.70;;;1.67;;
34982;SDS011;21187;50.976;13.720;2022-09-27T18:07:45;2.45;;;1.35;;
34982;SDS011;21187;50.976;13.720;2022-09-27T18:12:47;3.60;;;1.17;;
34982;SDS011;21187;50.976;13.720;2022-09-27T18:17:49;3.13;;;1.80;;
34982;SDS011;21187;50.976;13.720;2022-09-27T18:22:58;2.65;;;1.58;;
34982;SDS011;21187;50.976;13.720;2022-09-27T18:28:00;4.63;;;1.33;;
34982;SDS011;21187;50.976;13.720;2022-09-27T18:33:02;1.67;;;1.00;;
34982;SDS011;21187;50.976;13.720;2022-09-27T18:38:04;2.65;;;1.00;;
34982;SDS011;21187;50.976;13.720;2022-09-27T18:43:06;3.60;;;0.93;;
34982;SDS011;21187;50.976;13.720;2022-09-27T18:48:07;1.92;;;1.05;;
34982;SDS011;21187;50.976;13.720;2022-09-27T18:53:09;0.77;;;0.70;;
34982;SDS011;21187;50.976;13.720;2022-09-27T18:58:11;0.70;;;0.70;;
34982;SDS011;21187;50.976;13.720;2022-09-27T19:03:16;0.60;;;0.60;;
34982;SDS011;21187;50.976;13.720;2022-09-27T19:08:18;3.88;;;1.00;;
34982;SDS011;21187;50.976;13.720;2022-09-27T19:13:20;1.45;;;0.88;;
34982;SDS011;21187;50.976;13.720;2022-09-27T19:18:29;2.00;;;0.90;;
34982;SDS011;21187;50.976;13.720;2022-09-27T19:23:31;1.65;;;1.10;;
34982;SDS011;21187;50.976;13.720;2022-09-27T19:28:35;1.60;;;1.08;;
34982;SDS011;21187;50.976;13.720;2022-09-27T19:33:39;1.80;;;0.70;;
34982;SDS011;21187;50.976;13.720;2022-09-27T19:38:41;1.08;;;0.50;;
34982;SDS011;21187;50.976;13.720;2022-09-27T19:43:44;1.35;;;0.70;;
34982;SDS011;21187;50.976;13.720;2022-09-27T19:48:51;1.05;;;0.73;;
34982;SDS011;21187;50.976;13.720;2022-09-27T19:53:53;1.15;;;0.65;;
34982;SDS011;21187;50.976;13.720;2022-09-27T19:58:55;1.02;;;0.70;;
34982;SDS011;21187;50.976;13.720;2022-09-27T20:03:57;2.30;;;0.50;;
34982;SDS011;21187;50.976;13.720;2022-09-27T20:09:00;1.30;;;0.80;;
34982;SDS011;21187;50.976;13.720;2022-09-27T20:14:03;2.70;;;0.75;;
34982;SDS011;21187;50.976;13.720;2022-09-27T20:19:06;4.28;;;0.80;;
34982;SDS011;21187;50.976;13.720;2022-09-27T20:24:08;1.17;;;0.80;;
34982;SDS011;21187;50.976;13.720;2022-09-27T20:29:10;2.10;;;0.80;;
34982;SDS011;21187;50.976;13.720;2022-09-27T20:34:13;6.00;;;0.90;;
34982;SDS011;21187;50.976;13.720;2022-09-27T20:39:15;0.98;;;0.75;;
34982;SDS011;21187;50.976;13.720;2022-09-27T20:44:18;5.40;;;0.70;;
34982;SDS011;21187;50.976;13.720;2022-09-27T20:49:20;0.90;;;0.65;;
34982;SDS011;21187;50.976;13.720;2022-09-27T20:54:22;0.70;;;0.65;;
34982;SDS011;21187;50.976;13.720;2022-09-27T20:59:24;1.60;;;0.82;;
34982;SDS011;21187;50.976;13.720;2022-09-27T21:04:26;4.93;;;1.75;;
34982;SDS011;21187;50.976;13.720;2022-09-27T21:09:30;2.78;;;1.10;;
34982;SDS011;21187;50.976;13.720;2022-09-27T21:14:32;1.88;;;1.10;;
34982;SDS011;21187;50.976;13.720;2022-09-27T21:19:34;3.20;;;1.00;;
34982;SDS011;21187;50.976;13.720;2022-09-27T21:24:36;1.75;;;0.95;;
34982;SDS011;21187;50.976;13.720;2022-09-27T21:29:38;1.40;;;0.73;;
34982;SDS011;21187;50.976;13.720;2022-09-27T21:34:40;5.13;;;1.17;;
34982;SDS011;21187;50.976;13.720;2022-09-27T21:39:42;1.30;;;0.80;;
34982;SDS011;21187;50.976;13.720;2022-09-27T21:44:44;1.35;;;0.85;;
34982;SDS011;21187;50.976;13.720;2022-09-27T21:49:45;2.47;;;0.80;;
34982;SDS011;21187;50.976;13.720;2022-09-27T21:54:47;1.95;;;0.77;;
34982;SDS011;21187;50.976;13.720;2022-09-27T21:59:49;1.55;;;0.77;;
34982;SDS011;21187;50.976;13.720;2022-09-27T22:04:51;1.25;;;0.70;;
34982;SDS011;21187;50.976;13.720;2022-09-27T22:09:53;2.55;;;0.60;;
34982;SDS011;21187;50.976;13.720;2022-09-27T22:14:54;2.78;;;1.08;;
34982;SDS011;21187;50.976;13.720;2022-09-27T22:19:56;1.02;;;0.68;;
34982;SDS011;21187;50.976;13.720;2022-09-27T22:24:58;10.02;;;1.30;;
34982;SDS011;21187;50.976;13.720;2022-09-27T22:30:00;1.40;;;0.80;;
34982;SDS011;21187;50.976;13.720;2022-09-27T22:35:02;0.73;;;0.70;;
34982;SDS011;21187;50.976;13.720;2022-09-27T22:40:04;1.15;;;0.60;;
34982;SDS011;21187;50.976;13.720;2022-09-27T22:45:07;0.88;;;0.60;;
34982;SDS011;21187;50.976;13.720;2022-09-27T22:50:09;6.40;;;0.70;;
34982;SDS011;21187;50.976;13.720;2022-09-27T22:55:11;0.98;;;0.50;;
34982;SDS011;21187;50.976;13.720;2022-09-27T23:00:13;7.10;;;0.68;;
34982;SDS011;21187;50.976;13.720;2022-09-27T23:05:15;0.63;;;0.50;;
34982;SDS011;21187;50.976;13.720;2022-09-27T23:10:17;1.63;;;0.80;;
34982;SDS011;21187;50.976;13.720;2022-09-27T23:15:20;0.73;;;0.50;;
34982;SDS011;21187;50.976;13.720;2022-09-27T23:20:22;1.50;;;0.55;;
34982;SDS011;21187;50.976;13.720;2022-09-27T23:25:24;2.78;;;0.70;;
34982;SDS011;21187;50.976;13.720;2022-09-27T23:30:26;1.85;;;0.73;;
34982;SDS011;21187;50.976;13.720;2022-09-27T23:35:30;0.90;;;0.50;;
34982;SDS011;21187;50.976;13.720;2022-09-27T23:40:34;0.40;;;0.40;;
34982;SDS011;21187;50.976;13.720;2022-09-27T23:45:37;0.95;;;0.70;;
34982;SDS011;21187;50.976;13.720;2022-09-27T23:50:41;0.68;;;0.68;;
34982;SDS011;21187;50.976;13.720;2022-09-27T23:55:44;0.70;;;0.50;;
